Kenora Airport
CYQK : now visible

Airfield :











YOU CAN JOIN US ON...

 
LOGIN :

Register | Disclaimer

   EN    FR    IT 

 









Legend :    VFR   Marginal VFR   IFR   Intensive IFR   Very Intensive IFR
Visi :
Ceiling :
>= 8 km
>= 3000ft
5 to 8 km
1000 to 3000 ft
1500m to 5 km
500 to 1000 ft
800 to 1500m
200 to 500 ft
< 800m
< 200 ft
Symbols :   Thunderstorms  Fog  Heavy snow  Heavy precipitations  Wind > 20 kt






- Airport Elevation : 1332 ft
- IATA code : YQK


CYQK - Kenora

CURRENT METAR :
  • 280700Z 16004KT 20SM SCT100 OVC250 17/05 A2973 RMK AC4CI4 CLD HGT ESTD SLP068 DENSITY ALT 2100FT

EXPIRED METARs :
  • 280600Z 13003KT 20SM SCT100 OVC210 17/05 A2973 RMK AC4CI4 CLD HGT ESTD SLP071 DENSITY ALT 2100FT
  • 280500Z VRB02KT 20SM SCT160 OVC250 17/06 A2975 RMK AC4CI4 CLD HGT ESTD SLP079 DENSITY ALT 2100FT

TAF TAF CYQK
Valid from the 28 at 08:00 until the 28 at 20:00 UTC


280740Z 2808/2820 VRB03KT P6SM BKN160
FM281200 05007KT P6SM BKN120
FM281800 10010KT P6SM BKN100 RMK NXT FCST BY 281400Z
CZWG FIR / North America



MET'MAP, your aeronautical weather chart ! - Copyright ORBIFLY December 2007 - Disclaimer

ORBIFLY MET'MAP TEAM :

Programming & Development : Alexandra Zaïnal
Original concept : Baudouin d'Aumeries
Technical & hardware support : Manuel Goepfert
Assistance : Marc-Olivier Méhu

Contact : metmap@orbifly.com




SOURCES & CREDITS :

   NOAA       Earth
Advisory